createdAt,value
2022-11-29T00:01:31.829Z,38.97
2022-11-29T00:03:59.362Z,37.92
2022-11-29T00:06:31.735Z,28.42
2022-11-29T00:09:01.013Z,28.45
2022-11-29T00:11:49.312Z,24.02
2022-11-29T00:14:17.695Z,22.30
2022-11-29T00:16:44.565Z,25.33
2022-11-29T00:19:12.725Z,23.38
2022-11-29T00:21:39.325Z,29.73
2022-11-29T00:24:06.522Z,24.73
2022-11-29T00:26:33.428Z,22.88
2022-11-29T00:28:59.971Z,30.08
2022-11-29T00:31:30.533Z,28.15
2022-11-29T00:33:59.286Z,26.55
2022-11-29T00:36:26.065Z,16.50
2022-11-29T00:38:53.076Z,14.88
2022-11-29T00:41:20.260Z,16.42
2022-11-29T00:43:47.685Z,14.65
2022-11-29T00:46:14.228Z,19.00
2022-11-29T00:48:40.858Z,13.25
2022-11-29T00:51:08.416Z,20.45
2022-11-29T00:53:35.829Z,23.52
2022-11-29T00:56:03.183Z,18.40
2022-11-29T00:58:30.235Z,18.95
2022-11-29T01:00:57.016Z,23.52
2022-11-29T01:03:24.570Z,13.23
2022-11-29T01:05:51.299Z,20.60
2022-11-29T01:08:18.448Z,17.83
2022-11-29T01:10:45.138Z,19.25
2022-11-29T01:13:12.149Z,15.90
2022-11-29T01:15:38.779Z,15.40
2022-11-29T01:18:05.663Z,18.60
2022-11-29T01:20:32.294Z,14.73
2022-11-29T01:22:59.053Z,17.77
2022-11-29T01:25:26.059Z,16.13
2022-11-29T01:27:52.807Z,18.65
2022-11-29T01:30:19.520Z,16.02
2022-11-29T01:32:46.211Z,17.05
2022-11-29T01:35:12.788Z,14.48
2022-11-29T01:37:39.348Z,16.80
2022-11-29T01:40:06.769Z,18.70
2022-11-29T01:42:33.439Z,15.25
2022-11-29T01:45:28.035Z,15.68
2022-11-29T01:47:58.183Z,14.48
2022-11-29T01:50:25.170Z,19.08
2022-11-29T01:52:52.269Z,16.08
2022-11-29T01:55:19.286Z,15.93
2022-11-29T01:57:46.164Z,14.18
2022-11-29T02:00:18.529Z,17.27
2022-11-29T02:02:51.441Z,17.63
2022-11-29T02:05:19.855Z,19.70
2022-11-29T02:07:51.060Z,17.83
2022-11-29T02:10:18.367Z,17.77
2022-11-29T02:13:27.074Z,15.68
2022-11-29T02:16:24.034Z,12.85
2022-11-29T02:19:05.304Z,18.67
2022-11-29T02:21:41.308Z,12.15
2022-11-29T02:24:16.736Z,13.23
2022-11-29T02:27:07.527Z,15.93
2022-11-29T02:30:19.522Z,13.00
2022-11-29T02:33:07.408Z,21.25
2022-11-29T02:35:45.340Z,16.17
2022-11-29T02:38:30.813Z,15.00
2022-11-29T02:41:22.512Z,17.15
2022-11-29T02:43:59.488Z,17.38
2022-11-29T02:46:44.297Z,15.77
2022-11-29T02:49:41.791Z,14.82
2022-11-29T02:52:18.364Z,14.68
2022-11-29T02:54:54.025Z,19.35
2022-11-29T02:57:29.511Z,21.35
2022-11-29T03:00:07.903Z,19.55
2022-11-29T03:02:59.944Z,15.25
2022-11-29T03:05:35.454Z,14.95
2022-11-29T03:08:20.114Z,21.70
2022-11-29T03:10:56.347Z,18.42
2022-11-29T03:14:03.234Z,19.33
2022-11-29T03:16:43.748Z,15.75
2022-11-29T03:19:41.191Z,15.63
2022-11-29T03:22:19.846Z,23.05
2022-11-29T03:25:02.734Z,23.80
2022-11-29T03:27:39.821Z,26.08
2022-11-29T03:30:11.290Z,37.13
2022-11-29T03:33:09.783Z,34.60
2022-11-29T03:35:57.716Z,36.50
2022-11-29T03:38:35.385Z,29.83
2022-11-29T03:41:12.046Z,37.15
2022-11-29T03:43:45.775Z,36.45
2022-11-29T03:46:21.502Z,37.15
2022-11-29T03:48:59.409Z,47.67
2022-11-29T03:51:39.867Z,43.75
2022-11-29T03:54:22.016Z,51.92
2022-11-29T03:56:49.064Z,56.70
2022-11-29T03:59:47.186Z,51.80
2022-11-29T04:02:50.826Z,47.65
2022-11-29T04:05:43.727Z,50.60
2022-11-29T04:08:56.566Z,51.10
2022-11-29T04:12:08.581Z,49.45
2022-11-29T04:15:00.107Z,41.92
2022-11-29T04:17:36.972Z,47.38
2022-11-29T04:20:18.779Z,43.42
2022-11-29T04:22:48.274Z,38.35
2022-11-29T04:25:43.855Z,41.90
2022-11-29T04:28:35.125Z,28.35
2022-11-29T04:31:22.812Z,31.17
2022-11-29T04:33:58.288Z,31.52
2022-11-29T04:36:37.390Z,30.05
2022-11-29T04:39:41.321Z,28.48
2022-11-29T04:42:29.292Z,23.98
2022-11-29T04:45:27.724Z,25.55
2022-11-29T04:48:12.376Z,29.42
2022-11-29T04:50:58.953Z,30.27
2022-11-29T04:53:25.604Z,26.67
2022-11-29T04:56:06.446Z,26.48
2022-11-29T04:58:41.985Z,24.08
2022-11-29T05:01:21.868Z,25.70
2022-11-29T05:04:01.504Z,36.72
2022-11-29T05:07:08.220Z,20.92
2022-11-29T05:10:13.514Z,26.92
2022-11-29T05:13:03.083Z,24.08
2022-11-29T05:15:56.924Z,24.13
2022-11-29T05:19:02.433Z,26.52
2022-11-29T05:22:03.229Z,19.80
2022-11-29T05:24:53.653Z,26.17
2022-11-29T05:27:43.630Z,23.65
2022-11-29T05:30:22.393Z,28.17
2022-11-29T05:33:11.482Z,36.17
2022-11-29T05:35:50.558Z,47.22
2022-11-29T05:38:24.286Z,33.80
2022-11-29T05:41:12.179Z,39.42
2022-11-29T05:44:03.749Z,47.00
2022-11-29T05:46:48.802Z,46.83
2022-11-29T05:49:36.504Z,33.65
2022-11-29T05:52:30.268Z,36.83
2022-11-29T05:55:19.596Z,31.13
2022-11-29T05:57:46.099Z,19.92
2022-11-29T06:00:14.723Z,29.73
2022-11-29T06:03:06.251Z,46.53
2022-11-29T06:05:46.872Z,33.80
2022-11-29T06:08:18.485Z,24.00
2022-11-29T06:10:57.696Z,36.25
2022-11-29T06:13:30.040Z,24.90
2022-11-29T06:16:14.598Z,40.20
2022-11-29T06:19:17.221Z,38.72
2022-11-29T06:22:21.501Z,27.77
2022-11-29T06:24:48.129Z,26.63
2022-11-29T06:27:17.603Z,59.85
2022-11-29T06:30:14.372Z,21.45
2022-11-29T06:32:55.254Z,45.95
2022-11-29T06:35:36.978Z,25.55
2022-11-29T06:38:20.913Z,29.95
2022-11-29T06:40:48.044Z,40.10
2022-11-29T06:43:14.975Z,35.97
2022-11-29T06:45:48.446Z,61.63
2022-11-29T06:48:30.327Z,41.15
2022-11-29T06:50:59.577Z,21.48
2022-11-29T06:53:57.887Z,28.58
2022-11-29T06:56:33.392Z,36.50
2022-11-29T06:59:29.788Z,34.20
2022-11-29T07:02:05.953Z,20.60
2022-11-29T07:04:46.397Z,53.20
2022-11-29T07:07:20.817Z,55.22
2022-11-29T07:09:51.643Z,44.00
2022-11-29T07:12:18.793Z,19.05
2022-11-29T07:14:46.135Z,34.17
2022-11-29T07:17:35.726Z,41.83
2022-11-29T07:20:15.583Z,37.15
2022-11-29T07:22:57.299Z,47.53
2022-11-29T07:25:37.500Z,23.20
2022-11-29T07:28:22.090Z,20.80
2022-11-29T07:31:07.776Z,52.85
2022-11-29T07:33:58.974Z,39.47
2022-11-29T07:36:41.193Z,21.88
2022-11-29T07:39:28.609Z,38.78
2022-11-29T07:42:13.607Z,17.73
2022-11-29T07:44:50.778Z,17.70
2022-11-29T07:47:17.590Z,25.67
2022-11-29T07:49:44.153Z,25.88
2022-11-29T07:52:12.590Z,28.45
2022-11-29T07:54:40.417Z,32.00
2022-11-29T07:57:07.175Z,22.67
2022-11-29T07:59:33.784Z,24.92
2022-11-29T08:02:00.904Z,22.42
2022-11-29T08:04:27.645Z,28.73
2022-11-29T08:06:54.210Z,31.05
2022-11-29T08:09:20.780Z,36.20
2022-11-29T08:11:48.968Z,19.83
2022-11-29T08:14:15.618Z,31.27
2022-11-29T08:16:42.257Z,24.88
2022-11-29T08:19:08.972Z,27.65
2022-11-29T08:21:35.625Z,19.92
2022-11-29T08:24:02.402Z,17.60
2022-11-29T08:26:31.897Z,33.05
2022-11-29T08:28:58.744Z,14.45
2022-11-29T08:31:26.138Z,36.28
2022-11-29T08:33:52.810Z,41.80
2022-11-29T08:36:20.603Z,20.20
2022-11-29T08:38:47.430Z,18.08
2022-11-29T08:41:17.117Z,29.75
2022-11-29T08:43:44.735Z,27.33
2022-11-29T08:46:18.199Z,16.38
2022-11-29T08:48:46.168Z,27.77
2022-11-29T08:51:13.047Z,25.80
2022-11-29T08:53:42.904Z,25.67
2022-11-29T08:57:04.275Z,20.55
2022-11-29T08:59:01.617Z,15.68
2022-11-29T09:01:29.375Z,29.50
2022-11-29T09:04:07.240Z,30.60
2022-11-29T09:06:38.924Z,33.35
2022-11-29T09:09:05.812Z,30.33
2022-11-29T09:11:33.996Z,25.45
2022-11-29T09:14:04.029Z,19.33
2022-11-29T09:16:33.982Z,18.55
2022-11-29T09:19:00.969Z,36.05
2022-11-29T09:21:30.774Z,22.30
2022-11-29T09:23:59.898Z,22.17
2022-11-29T09:26:29.293Z,19.10
2022-11-29T09:28:58.318Z,21.60
2022-11-29T09:31:25.099Z,35.00
2022-11-29T09:33:52.208Z,46.60
2022-11-29T09:36:22.621Z,17.70
2022-11-29T09:38:53.289Z,15.48
2022-11-29T09:41:50.693Z,21.27
2022-11-29T09:44:36.526Z,43.85
2022-11-29T09:47:06.058Z,19.58
2022-11-29T09:49:54.625Z,25.02
2022-11-29T09:52:39.790Z,16.75
2022-11-29T09:55:39.191Z,18.67
2022-11-29T09:58:12.126Z,19.92
2022-11-29T10:00:59.981Z,20.25
2022-11-29T10:03:34.109Z,22.90
2022-11-29T10:06:17.714Z,20.90
2022-11-29T10:08:51.860Z,23.55
2022-11-29T10:11:25.096Z,19.13
2022-11-29T10:14:00.403Z,17.70
2022-11-29T10:16:36.129Z,19.40
2022-11-29T10:19:15.269Z,25.20
2022-11-29T10:21:45.567Z,22.73
2022-11-29T10:24:20.336Z,22.80
2022-11-29T10:26:46.994Z,19.70
2022-11-29T10:29:15.819Z,22.75
2022-11-29T10:31:49.495Z,20.88
2022-11-29T10:34:20.016Z,19.73
2022-11-29T10:36:55.747Z,29.27
2022-11-29T10:39:25.253Z,30.98
2022-11-29T10:42:02.541Z,43.45
2022-11-29T10:44:32.083Z,32.25
2022-11-29T10:47:05.499Z,32.03
2022-11-29T10:49:38.030Z,26.98
2022-11-29T10:52:05.786Z,24.48
2022-11-29T10:54:40.325Z,27.55
2022-11-29T10:57:19.353Z,24.42
2022-11-29T11:00:09.752Z,25.70
2022-11-29T11:02:37.043Z,26.05
2022-11-29T11:05:12.449Z,25.63
2022-11-29T11:07:39.158Z,25.25
2022-11-29T11:10:21.908Z,25.35
2022-11-29T11:13:07.110Z,34.00
2022-11-29T11:15:34.099Z,35.05
2022-11-29T11:18:05.051Z,35.00
2022-11-29T11:20:35.020Z,29.50
2022-11-29T11:23:08.012Z,33.80
2022-11-29T11:25:39.621Z,31.50
2022-11-29T11:28:20.577Z,36.70
2022-11-29T11:30:53.703Z,28.98
2022-11-29T11:33:25.491Z,30.70
2022-11-29T11:36:15.330Z,32.47
2022-11-29T11:38:50.011Z,32.47
2022-11-29T11:41:51.154Z,37.22
2022-11-29T11:44:49.468Z,31.58
2022-11-29T11:47:27.981Z,37.25
2022-11-29T11:50:08.004Z,30.42
2022-11-29T11:52:58.394Z,37.80
2022-11-29T11:55:30.645Z,29.45
2022-11-29T11:58:22.460Z,30.88
2022-11-29T12:01:14.603Z,25.48
2022-11-29T12:03:56.890Z,27.08
2022-11-29T12:06:54.679Z,27.80
2022-11-29T12:12:10.474Z,21.48
2022-11-29T12:15:01.202Z,27.05
2022-11-29T12:17:44.307Z,22.60
2022-11-29T12:20:31.509Z,23.15
2022-11-29T12:23:13.702Z,29.60
2022-11-29T12:25:50.622Z,25.05
2022-11-29T12:28:20.833Z,24.63
2022-11-29T12:31:15.082Z,26.38
2022-11-29T12:33:41.823Z,22.13
2022-11-29T12:36:41.110Z,19.45
2022-11-29T12:39:13.729Z,22.00
2022-11-29T12:41:54.391Z,19.67
2022-11-29T12:44:48.188Z,19.90
2022-11-29T12:47:55.262Z,19.38
2022-11-29T12:50:21.783Z,23.48
2022-11-29T12:52:51.238Z,19.65
2022-11-29T12:55:24.617Z,17.85
2022-11-29T12:57:51.121Z,17.45
2022-11-29T13:00:21.236Z,20.90
2022-11-29T13:02:53.210Z,21.10
2022-11-29T13:05:38.974Z,20.70
2022-11-29T13:08:47.297Z,20.85
2022-11-29T13:16:56.382Z,18.27
2022-11-29T13:19:28.667Z,14.90
2022-11-29T13:22:07.343Z,18.35
2022-11-29T13:24:43.375Z,20.55
2022-11-29T13:27:34.573Z,15.07
2022-11-29T13:30:02.014Z,23.20
2022-11-29T13:32:34.825Z,17.45
2022-11-29T13:35:27.248Z,23.55
2022-11-29T13:38:25.598Z,18.70
2022-11-29T13:41:01.733Z,17.63
2022-11-29T13:43:45.739Z,18.92
2022-11-29T13:46:42.275Z,16.65
2022-11-29T13:49:21.386Z,17.75
2022-11-29T13:51:48.450Z,22.00
2022-11-29T13:54:30.814Z,17.90
2022-11-29T13:57:05.383Z,20.55
2022-11-29T13:59:34.718Z,18.60
2022-11-29T14:02:02.325Z,18.73
2022-11-29T14:04:39.172Z,20.45
2022-11-29T14:07:12.596Z,18.98
2022-11-29T14:09:51.534Z,23.42
2022-11-29T14:12:37.707Z,23.73
2022-11-29T14:15:24.657Z,21.25
2022-11-29T14:17:56.692Z,18.67
2022-11-29T14:20:23.339Z,15.00
2022-11-29T14:23:05.234Z,19.83
2022-11-29T14:26:03.024Z,16.20
2022-11-29T14:31:07.142Z,18.53
2022-11-29T14:33:37.416Z,15.18
2022-11-29T14:36:18.853Z,19.77
2022-11-29T14:39:05.042Z,24.95
2022-11-29T14:41:48.006Z,15.07
2022-11-29T14:44:24.354Z,21.77
2022-11-29T14:47:01.666Z,16.95
2022-11-29T14:49:29.176Z,19.05
2022-11-29T14:52:13.540Z,17.20
2022-11-29T14:55:02.689Z,17.45
2022-11-29T14:57:47.305Z,14.88
2022-11-29T15:00:28.384Z,18.85
2022-11-29T15:03:09.818Z,22.42
2022-11-29T15:05:40.807Z,15.02
2022-11-29T15:08:32.319Z,19.25
2022-11-29T15:11:11.402Z,16.38
2022-11-29T15:13:51.113Z,18.23
2022-11-29T15:16:50.262Z,20.77
2022-11-29T15:19:16.849Z,17.63
2022-11-29T15:22:14.845Z,20.10
2022-11-29T15:24:52.917Z,18.55
2022-11-29T15:27:20.030Z,20.67
2022-11-29T15:29:49.531Z,23.30
2022-11-29T15:32:28.338Z,16.15
2022-11-29T15:34:56.418Z,21.48
2022-11-29T15:37:31.854Z,12.98
2022-11-29T15:40:05.554Z,14.43
2022-11-29T15:42:50.657Z,16.65
2022-11-29T15:45:26.695Z,15.88
2022-11-29T15:47:53.576Z,22.90
2022-11-29T15:50:31.186Z,19.45
2022-11-29T15:53:04.934Z,18.85
2022-11-29T15:55:33.155Z,19.90
2022-11-29T15:58:08.493Z,29.13
2022-11-29T16:00:37.269Z,21.33
2022-11-29T16:03:05.112Z,26.35
2022-11-29T16:05:37.392Z,21.40
2022-11-29T16:08:08.725Z,22.45
2022-11-29T16:11:02.839Z,23.58
2022-11-29T16:13:39.292Z,18.27
2022-11-29T16:16:07.987Z,18.83
2022-11-29T16:18:36.118Z,16.75
2022-11-29T16:21:07.723Z,16.42
2022-11-29T16:23:36.306Z,20.77
2022-11-29T16:26:22.442Z,25.92
2022-11-29T16:28:52.637Z,18.38
2022-11-29T16:31:24.896Z,31.48
2022-11-29T16:33:52.695Z,26.20
2022-11-29T16:36:27.774Z,23.92
2022-11-29T16:39:22.679Z,28.05
2022-11-29T16:42:30.136Z,30.38
2022-11-29T16:45:23.448Z,23.00
2022-11-29T16:47:53.026Z,31.15
2022-11-29T16:50:22.751Z,26.83
2022-11-29T16:52:54.976Z,40.95
2022-11-29T16:55:22.935Z,35.13
2022-11-29T16:57:49.669Z,24.02
2022-11-29T17:00:23.931Z,34.28
2022-11-29T17:02:50.629Z,25.13
2022-11-29T17:05:17.452Z,22.15
2022-11-29T17:07:44.328Z,21.35
2022-11-29T17:10:15.402Z,26.77
2022-11-29T17:12:47.779Z,18.67
2022-11-29T17:15:14.922Z,15.88
2022-11-29T17:17:46.431Z,19.60
2022-11-29T17:20:13.972Z,18.00
2022-11-29T17:22:41.409Z,19.02
2022-11-29T17:25:09.105Z,16.55
2022-11-29T17:27:35.951Z,20.23
2022-11-29T17:30:04.666Z,21.45
2022-11-29T17:32:34.547Z,22.17
2022-11-29T17:35:01.270Z,23.27
2022-11-29T17:37:29.951Z,20.08
2022-11-29T17:39:56.980Z,17.17
2022-11-29T17:42:23.900Z,23.92
2022-11-29T17:44:50.792Z,20.88
2022-11-29T17:47:17.471Z,26.45
2022-11-29T17:49:44.776Z,24.05
2022-11-29T17:52:11.717Z,27.63
2022-11-29T17:54:38.567Z,25.98
2022-11-29T17:57:06.083Z,27.73
2022-11-29T17:59:32.944Z,32.40
2022-11-29T18:01:59.881Z,30.13
2022-11-29T18:04:26.692Z,26.83
2022-11-29T18:06:53.389Z,31.35
2022-11-29T18:09:20.248Z,27.73
2022-11-29T18:11:49.691Z,22.88
2022-11-29T18:14:20.060Z,25.65
2022-11-29T18:16:46.865Z,24.73
2022-11-29T18:19:17.279Z,20.50
2022-11-29T18:21:44.178Z,29.48
2022-11-29T18:24:11.459Z,28.75
2022-11-29T18:26:38.749Z,26.02
2022-11-29T18:29:06.733Z,21.17
2022-11-29T18:31:36.289Z,23.77
2022-11-29T18:34:09.919Z,26.83
2022-11-29T18:36:46.427Z,24.00
2022-11-29T18:39:18.993Z,24.85
2022-11-29T18:41:48.076Z,23.95
2022-11-29T18:44:16.482Z,23.08
2022-11-29T18:46:44.998Z,23.45
2022-11-29T18:49:14.492Z,22.50
2022-11-29T18:51:44.623Z,21.55
2022-11-29T18:54:12.569Z,22.83
2022-11-29T18:56:40.687Z,21.98
2022-11-29T18:59:13.756Z,34.70
2022-11-29T19:01:42.841Z,23.02
2022-11-29T19:04:15.104Z,16.83
2022-11-29T19:06:42.767Z,17.45
2022-11-29T19:09:23.916Z,21.95
2022-11-29T19:11:50.914Z,16.15
2022-11-29T19:14:18.442Z,20.25
2022-11-29T19:16:47.181Z,19.73
2022-11-29T19:19:13.875Z,15.52
2022-11-29T19:21:41.179Z,15.20
2022-11-29T19:24:17.594Z,15.60
2022-11-29T19:26:46.169Z,15.18
2022-11-29T19:29:13.930Z,19.80
2022-11-29T19:31:40.952Z,13.60
2022-11-29T19:34:07.839Z,17.25
2022-11-29T19:36:37.086Z,11.88
2022-11-29T19:39:03.847Z,12.80
2022-11-29T19:41:32.982Z,14.50
2022-11-29T19:44:01.795Z,13.82
2022-11-29T19:46:34.716Z,12.90
2022-11-29T19:49:02.755Z,10.68
2022-11-29T19:51:30.249Z,12.13
2022-11-29T19:53:59.986Z,14.38
2022-11-29T19:56:28.160Z,13.07
2022-11-29T19:58:55.406Z,12.27
2022-11-29T20:01:25.261Z,12.73
2022-11-29T20:03:52.730Z,12.40
2022-11-29T20:06:19.893Z,12.73
2022-11-29T20:08:47.341Z,11.35
2022-11-29T20:11:19.673Z,11.60
2022-11-29T20:13:52.681Z,15.48
2022-11-29T20:16:19.480Z,20.70
2022-11-29T20:18:51.593Z,12.23
2022-11-29T20:21:28.584Z,15.07
2022-11-29T20:24:03.688Z,11.50
2022-11-29T20:26:32.960Z,12.02
2022-11-29T20:29:00.045Z,10.85
2022-11-29T20:31:27.043Z,12.23
2022-11-29T20:33:57.403Z,11.10
2022-11-29T20:36:47.784Z,11.20
2022-11-29T20:39:38.344Z,12.85
2022-11-29T20:42:23.235Z,12.50
2022-11-29T20:44:57.323Z,11.07
2022-11-29T20:47:53.080Z,12.68
2022-11-29T20:50:28.985Z,14.65
2022-11-29T20:53:43.258Z,12.73
2022-11-29T20:56:11.370Z,17.95
2022-11-29T20:58:38.297Z,16.00
2022-11-29T21:01:05.570Z,18.35
2022-11-29T21:03:32.624Z,19.95
2022-11-29T21:06:02.625Z,17.92
2022-11-29T21:08:29.694Z,14.25
2022-11-29T21:11:05.550Z,15.73
2022-11-29T21:13:32.835Z,15.67
2022-11-29T21:16:00.275Z,16.98
2022-11-29T21:18:28.642Z,15.07
2022-11-29T21:21:16.655Z,16.15
2022-11-29T21:23:58.935Z,14.02
2022-11-29T21:26:51.673Z,17.60
2022-11-29T21:29:21.298Z,13.93
2022-11-29T21:31:50.823Z,14.93
2022-11-29T21:34:17.599Z,15.60
2022-11-29T21:36:48.739Z,14.80
2022-11-29T21:39:16.612Z,13.75
2022-11-29T21:41:43.232Z,17.38
2022-11-29T21:44:10.165Z,15.32
2022-11-29T21:46:36.933Z,14.05
2022-11-29T21:49:04.780Z,13.25
2022-11-29T21:51:31.417Z,14.80
2022-11-29T21:53:58.055Z,12.07
2022-11-29T21:56:25.018Z,11.73
2022-11-29T21:58:51.684Z,12.77
2022-11-29T22:01:20.564Z,13.43
2022-11-29T22:03:47.718Z,11.65
2022-11-29T22:06:20.481Z,11.73
2022-11-29T22:08:48.372Z,11.30
2022-11-29T22:11:30.885Z,10.63
2022-11-29T22:14:16.099Z,11.93
2022-11-29T22:16:50.198Z,11.05
2022-11-29T22:19:20.345Z,11.95
2022-11-29T22:21:49.482Z,14.60
2022-11-29T22:24:18.886Z,14.43
2022-11-29T22:26:46.105Z,15.02
2022-11-29T22:29:16.607Z,12.00
2022-11-29T22:31:44.935Z,13.90
2022-11-29T22:34:11.680Z,10.10
2022-11-29T22:36:39.018Z,11.82
2022-11-29T22:39:07.217Z,12.13
2022-11-29T22:41:35.828Z,11.48
2022-11-29T22:44:03.539Z,13.52
2022-11-29T22:46:30.528Z,11.98
2022-11-29T22:49:00.440Z,13.50
2022-11-29T22:51:32.697Z,12.00
2022-11-29T22:54:04.625Z,11.90
2022-11-29T22:56:34.448Z,13.38
2022-11-29T22:59:01.566Z,14.05
2022-11-29T23:01:30.739Z,14.15
2022-11-29T23:03:59.517Z,13.07
2022-11-29T23:06:36.870Z,15.57
2022-11-29T23:09:25.419Z,15.13
2022-11-29T23:11:54.248Z,12.18
2022-11-29T23:14:22.298Z,14.57
2022-11-29T23:16:49.554Z,16.50
2022-11-29T23:19:16.370Z,15.02
2022-11-29T23:21:45.532Z,14.50
2022-11-29T23:24:12.712Z,14.98
2022-11-29T23:26:43.590Z,15.45
2022-11-29T23:29:13.239Z,15.30
2022-11-29T23:31:40.264Z,16.00
2022-11-29T23:34:07.480Z,14.18
2022-11-29T23:36:34.824Z,14.95
2022-11-29T23:39:01.664Z,14.32
2022-11-29T23:41:28.252Z,16.80
2022-11-29T23:43:55.088Z,17.95
2022-11-29T23:46:24.048Z,16.17
2022-11-29T23:48:51.089Z,14.50
2022-11-29T23:51:18.280Z,15.32
2022-11-29T23:53:46.765Z,19.00
2022-11-29T23:56:17.837Z,15.95
2022-11-29T23:58:45.033Z,18.77
